sensor_id;sensor_type;location;lat;lon;timestamp;temperature;humidity
23597;DHT22;40226;50.874;4.394;2022-09-14T00:00:50;18.60;99.90
23597;DHT22;40226;50.874;4.394;2022-09-14T00:03:17;18.50;99.90
23597;DHT22;40226;50.874;4.394;2022-09-14T00:05:42;18.50;99.90
23597;DHT22;40226;50.874;4.394;2022-09-14T00:08:09;18.50;99.90
23597;DHT22;40226;50.874;4.394;2022-09-14T00:10:42;18.40;99.90
23597;DHT22;40226;50.874;4.394;2022-09-14T00:13:09;18.40;99.90
23597;DHT22;40226;50.874;4.394;2022-09-14T00:15:37;18.30;99.90
23597;DHT22;40226;50.874;4.394;2022-09-14T00:18:05;18.40;99.90
23597;DHT22;40226;50.874;4.394;2022-09-14T00:20:31;18.40;99.90
23597;DHT22;40226;50.874;4.394;2022-09-14T00:22:57;18.70;99.90
23597;DHT22;40226;50.874;4.394;2022-09-14T00:25:22;18.60;99.90
23597;DHT22;40226;50.874;4.394;2022-09-14T00:27:49;18.50;99.90
23597;DHT22;40226;50.874;4.394;2022-09-14T00:30:15;18.30;99.90
23597;DHT22;40226;50.874;4.394;2022-09-14T00:32:41;18.30;99.90
23597;DHT22;40226;50.874;4.394;2022-09-14T00:35:06;18.40;99.90
23597;DHT22;40226;50.874;4.394;2022-09-14T00:37:32;18.30;99.90
23597;DHT22;40226;50.874;4.394;2022-09-14T00:39:58;18.10;99.90
23597;DHT22;40226;50.874;4.394;2022-09-14T00:42:24;18.00;99.90
23597;DHT22;40226;50.874;4.394;2022-09-14T00:47:16;18.10;99.90
23597;DHT22;40226;50.874;4.394;2022-09-14T00:49:43;18.20;99.90
23597;DHT22;40226;50.874;4.394;2022-09-14T00:52:16;18.20;99.90
23597;DHT22;40226;50.874;4.394;2022-09-14T00:57:11;18.10;99.90
23597;DHT22;40226;50.874;4.394;2022-09-14T00:59:38;18.20;99.90
23597;DHT22;40226;50.874;4.394;2022-09-14T01:02:07;18.40;99.90
23597;DHT22;40226;50.874;4.394;2022-09-14T01:04:33;18.50;99.90
23597;DHT22;40226;50.874;4.394;2022-09-14T01:21:13;18.30;99.90
23597;DHT22;40226;50.874;4.394;2022-09-14T01:29:17;18.20;99.90
23597;DHT22;40226;50.874;4.394;2022-09-14T01:32:19;18.20;99.90
23597;DHT22;40226;50.874;4.394;2022-09-14T01:38:12;18.30;99.90
23597;DHT22;40226;50.874;4.394;2022-09-14T01:40:43;18.10;99.90
23597;DHT22;40226;50.874;4.394;2022-09-14T01:43:21;18.00;99.90
23597;DHT22;40226;50.874;4.394;2022-09-14T01:45:54;18.10;99.90
23597;DHT22;40226;50.874;4.394;2022-09-14T01:48:31;17.80;99.90
23597;DHT22;40226;50.874;4.394;2022-09-14T01:50:59;17.90;99.90
23597;DHT22;40226;50.874;4.394;2022-09-14T01:53:39;18.00;99.90
23597;DHT22;40226;50.874;4.394;2022-09-14T01:56:07;17.90;99.90
23597;DHT22;40226;50.874;4.394;2022-09-14T02:01:08;18.00;99.90
23597;DHT22;40226;50.874;4.394;2022-09-14T02:03:40;18.00;99.90
23597;DHT22;40226;50.874;4.394;2022-09-14T02:06:18;17.90;99.90
23597;DHT22;40226;50.874;4.394;2022-09-14T02:08:45;18.00;99.90
23597;DHT22;40226;50.874;4.394;2022-09-14T02:11:11;18.00;99.90
23597;DHT22;40226;50.874;4.394;2022-09-14T02:13:37;17.90;99.90
23597;DHT22;40226;50.874;4.394;2022-09-14T02:16:03;17.90;99.90
23597;DHT22;40226;50.874;4.394;2022-09-14T02:18:29;17.80;99.90
23597;DHT22;40226;50.874;4.394;2022-09-14T02:21:05;17.90;99.90
23597;DHT22;40226;50.874;4.394;2022-09-14T02:23:34;18.00;99.90
23597;DHT22;40226;50.874;4.394;2022-09-14T02:26:00;17.80;99.90
23597;DHT22;40226;50.874;4.394;2022-09-14T02:28:26;17.70;99.90
23597;DHT22;40226;50.874;4.394;2022-09-14T02:31:53;17.90;99.90
23597;DHT22;40226;50.874;4.394;2022-09-14T02:40:45;17.60;99.90
23597;DHT22;40226;50.874;4.394;2022-09-14T02:45:51;17.60;99.90
23597;DHT22;40226;50.874;4.394;2022-09-14T02:53:53;17.50;99.90
23597;DHT22;40226;50.874;4.394;2022-09-14T02:56:20;17.40;99.90
23597;DHT22;40226;50.874;4.394;2022-09-14T02:58:46;17.40;99.90
23597;DHT22;40226;50.874;4.394;2022-09-14T03:01:15;17.30;99.90
23597;DHT22;40226;50.874;4.394;2022-09-14T03:03:41;17.40;99.90
23597;DHT22;40226;50.874;4.394;2022-09-14T03:06:07;17.50;99.90
23597;DHT22;40226;50.874;4.394;2022-09-14T03:08:33;17.50;99.90
23597;DHT22;40226;50.874;4.394;2022-09-14T03:10:59;17.40;99.90
23597;DHT22;40226;50.874;4.394;2022-09-14T03:13:24;17.30;99.90
23597;DHT22;40226;50.874;4.394;2022-09-14T03:15:50;17.40;99.90
23597;DHT22;40226;50.874;4.394;2022-09-14T03:18:16;17.30;99.90
23597;DHT22;40226;50.874;4.394;2022-09-14T03:20:42;17.60;99.90
23597;DHT22;40226;50.874;4.394;2022-09-14T03:23:08;17.50;99.90
23597;DHT22;40226;50.874;4.394;2022-09-14T03:25:37;17.30;99.90
23597;DHT22;40226;50.874;4.394;2022-09-14T03:28:04;17.20;99.90
23597;DHT22;40226;50.874;4.394;2022-09-14T03:30:30;17.30;99.90
23597;DHT22;40226;50.874;4.394;2022-09-14T03:32:57;17.30;99.90
23597;DHT22;40226;50.874;4.394;2022-09-14T03:35:23;17.30;99.90
23597;DHT22;40226;50.874;4.394;2022-09-14T03:37:49;17.60;99.90
23597;DHT22;40226;50.874;4.394;2022-09-14T03:40:16;17.70;99.90
23597;DHT22;40226;50.874;4.394;2022-09-14T03:42:47;17.40;99.90
23597;DHT22;40226;50.874;4.394;2022-09-14T03:45:14;17.60;99.90
23597;DHT22;40226;50.874;4.394;2022-09-14T03:47:41;17.60;99.90
23597;DHT22;40226;50.874;4.394;2022-09-14T03:50:08;17.60;99.90
23597;DHT22;40226;50.874;4.394;2022-09-14T03:52:34;17.70;99.90
23597;DHT22;40226;50.874;4.394;2022-09-14T03:55:00;17.80;99.90
23597;DHT22;40226;50.874;4.394;2022-09-14T03:57:26;17.70;99.90
23597;DHT22;40226;50.874;4.394;2022-09-14T03:59:52;17.60;99.90
23597;DHT22;40226;50.874;4.394;2022-09-14T04:02:17;17.50;99.90
23597;DHT22;40226;50.874;4.394;2022-09-14T04:04:44;17.20;99.90
23597;DHT22;40226;50.874;4.394;2022-09-14T04:07:09;17.10;99.90
23597;DHT22;40226;50.874;4.394;2022-09-14T04:09:35;17.30;99.90
23597;DHT22;40226;50.874;4.394;2022-09-14T04:12:00;17.40;99.90
23597;DHT22;40226;50.874;4.394;2022-09-14T04:14:26;17.30;99.90
23597;DHT22;40226;50.874;4.394;2022-09-14T04:16:51;17.20;99.90
23597;DHT22;40226;50.874;4.394;2022-09-14T04:19:17;17.30;99.90
23597;DHT22;40226;50.874;4.394;2022-09-14T04:21:43;17.30;99.90
23597;DHT22;40226;50.874;4.394;2022-09-14T04:24:11;17.40;99.90
23597;DHT22;40226;50.874;4.394;2022-09-14T04:26:38;17.40;99.90
23597;DHT22;40226;50.874;4.394;2022-09-14T04:29:03;17.30;99.90
23597;DHT22;40226;50.874;4.394;2022-09-14T04:31:29;17.40;99.90
23597;DHT22;40226;50.874;4.394;2022-09-14T04:33:56;17.50;99.90
23597;DHT22;40226;50.874;4.394;2022-09-14T04:36:23;17.30;99.90
23597;DHT22;40226;50.874;4.394;2022-09-14T04:38:55;17.20;99.90
23597;DHT22;40226;50.874;4.394;2022-09-14T04:41:22;17.10;99.90
23597;DHT22;40226;50.874;4.394;2022-09-14T04:43:49;17.10;99.90
23597;DHT22;40226;50.874;4.394;2022-09-14T04:46:20;17.10;99.90
23597;DHT22;40226;50.874;4.394;2022-09-14T04:48:46;17.00;99.90
23597;DHT22;40226;50.874;4.394;2022-09-14T04:51:15;17.10;99.90
23597;DHT22;40226;50.874;4.394;2022-09-14T04:53:42;16.80;99.90
23597;DHT22;40226;50.874;4.394;2022-09-14T04:56:10;16.90;99.90
23597;DHT22;40226;50.874;4.394;2022-09-14T04:58:37;16.90;99.90
23597;DHT22;40226;50.874;4.394;2022-09-14T05:01:12;16.90;99.90
23597;DHT22;40226;50.874;4.394;2022-09-14T05:03:38;16.90;99.90
23597;DHT22;40226;50.874;4.394;2022-09-14T05:06:07;16.80;99.90
23597;DHT22;40226;50.874;4.394;2022-09-14T05:08:33;16.70;99.90
23597;DHT22;40226;50.874;4.394;2022-09-14T05:11:01;16.50;99.90
23597;DHT22;40226;50.874;4.394;2022-09-14T05:13:27;16.70;99.90
23597;DHT22;40226;50.874;4.394;2022-09-14T05:15:52;16.70;99.90
23597;DHT22;40226;50.874;4.394;2022-09-14T05:18:18;16.80;99.90
23597;DHT22;40226;50.874;4.394;2022-09-14T05:20:44;16.70;99.90
23597;DHT22;40226;50.874;4.394;2022-09-14T05:23:09;16.60;99.90
23597;DHT22;40226;50.874;4.394;2022-09-14T05:25:35;16.60;99.90
23597;DHT22;40226;50.874;4.394;2022-09-14T05:28:01;16.60;99.90
23597;DHT22;40226;50.874;4.394;2022-09-14T05:30:27;16.50;99.90
23597;DHT22;40226;50.874;4.394;2022-09-14T05:32:52;16.40;99.90
23597;DHT22;40226;50.874;4.394;2022-09-14T05:35:18;16.40;99.90
23597;DHT22;40226;50.874;4.394;2022-09-14T05:37:44;16.40;99.90
23597;DHT22;40226;50.874;4.394;2022-09-14T05:40:10;16.50;99.90
23597;DHT22;40226;50.874;4.394;2022-09-14T05:42:35;16.50;99.90
23597;DHT22;40226;50.874;4.394;2022-09-14T05:45:01;16.40;99.90
23597;DHT22;40226;50.874;4.394;2022-09-14T05:47:30;16.40;99.90
23597;DHT22;40226;50.874;4.394;2022-09-14T05:49:56;16.50;99.90
23597;DHT22;40226;50.874;4.394;2022-09-14T05:52:22;16.50;99.90
23597;DHT22;40226;50.874;4.394;2022-09-14T05:54:47;16.60;99.90
23597;DHT22;40226;50.874;4.394;2022-09-14T05:57:13;16.70;99.90
23597;DHT22;40226;50.874;4.394;2022-09-14T05:59:38;16.80;99.90
23597;DHT22;40226;50.874;4.394;2022-09-14T06:02:04;16.80;99.90
23597;DHT22;40226;50.874;4.394;2022-09-14T06:04:30;16.60;99.90
23597;DHT22;40226;50.874;4.394;2022-09-14T06:06:56;16.70;99.90
23597;DHT22;40226;50.874;4.394;2022-09-14T06:09:21;16.50;99.90
23597;DHT22;40226;50.874;4.394;2022-09-14T06:11:47;16.70;99.90
23597;DHT22;40226;50.874;4.394;2022-09-14T06:14:12;16.70;99.90
23597;DHT22;40226;50.874;4.394;2022-09-14T06:16:38;16.70;99.90
23597;DHT22;40226;50.874;4.394;2022-09-14T06:19:04;16.80;99.90
23597;DHT22;40226;50.874;4.394;2022-09-14T06:21:33;16.80;99.90
23597;DHT22;40226;50.874;4.394;2022-09-14T06:23:59;16.90;99.90
23597;DHT22;40226;50.874;4.394;2022-09-14T06:26:25;16.80;99.90
23597;DHT22;40226;50.874;4.394;2022-09-14T06:28:51;16.80;99.90
23597;DHT22;40226;50.874;4.394;2022-09-14T06:31:18;16.70;99.90
23597;DHT22;40226;50.874;4.394;2022-09-14T06:33:47;16.70;99.90
23597;DHT22;40226;50.874;4.394;2022-09-14T06:36:16;16.60;99.90
23597;DHT22;40226;50.874;4.394;2022-09-14T06:38:44;16.60;99.90
23597;DHT22;40226;50.874;4.394;2022-09-14T06:41:12;16.70;99.90
23597;DHT22;40226;50.874;4.394;2022-09-14T06:43:40;16.70;99.90
23597;DHT22;40226;50.874;4.394;2022-09-14T06:46:17;16.60;99.90
23597;DHT22;40226;50.874;4.394;2022-09-14T06:49:08;16.70;99.90
23597;DHT22;40226;50.874;4.394;2022-09-14T06:51:37;16.90;99.90
23597;DHT22;40226;50.874;4.394;2022-09-14T06:54:04;16.80;99.90
23597;DHT22;40226;50.874;4.394;2022-09-14T06:56:32;16.80;99.90
23597;DHT22;40226;50.874;4.394;2022-09-14T06:58:58;16.80;99.90
23597;DHT22;40226;50.874;4.394;2022-09-14T07:01:25;16.90;99.90
23597;DHT22;40226;50.874;4.394;2022-09-14T07:03:51;16.80;99.90
23597;DHT22;40226;50.874;4.394;2022-09-14T07:06:22;16.90;99.90
23597;DHT22;40226;50.874;4.394;2022-09-14T07:08:49;16.90;99.90
23597;DHT22;40226;50.874;4.394;2022-09-14T07:11:17;17.00;99.90
23597;DHT22;40226;50.874;4.394;2022-09-14T07:13:43;17.10;99.90
23597;DHT22;40226;50.874;4.394;2022-09-14T07:16:09;17.20;99.90
23597;DHT22;40226;50.874;4.394;2022-09-14T07:18:36;17.20;99.90
23597;DHT22;40226;50.874;4.394;2022-09-14T07:21:12;17.10;99.90
23597;DHT22;40226;50.874;4.394;2022-09-14T07:23:39;17.20;99.90
23597;DHT22;40226;50.874;4.394;2022-09-14T07:26:07;17.10;99.90
23597;DHT22;40226;50.874;4.394;2022-09-14T07:28:34;17.10;99.90
23597;DHT22;40226;50.874;4.394;2022-09-14T07:31:00;17.20;99.90
23597;DHT22;40226;50.874;4.394;2022-09-14T07:33:27;17.20;99.90
23597;DHT22;40226;50.874;4.394;2022-09-14T07:35:53;17.00;99.90
23597;DHT22;40226;50.874;4.394;2022-09-14T07:38:19;16.90;99.90
23597;DHT22;40226;50.874;4.394;2022-09-14T07:40:45;16.90;99.90
23597;DHT22;40226;50.874;4.394;2022-09-14T07:43:11;16.90;99.90
23597;DHT22;40226;50.874;4.394;2022-09-14T07:45:38;16.80;99.90
23597;DHT22;40226;50.874;4.394;2022-09-14T07:48:04;16.80;99.90
23597;DHT22;40226;50.874;4.394;2022-09-14T07:50:30;16.80;99.90
23597;DHT22;40226;50.874;4.394;2022-09-14T07:52:56;17.00;99.90
23597;DHT22;40226;50.874;4.394;2022-09-14T07:55:22;17.00;99.90
23597;DHT22;40226;50.874;4.394;2022-09-14T07:57:48;17.00;99.90
23597;DHT22;40226;50.874;4.394;2022-09-14T08:00:14;17.00;99.90
23597;DHT22;40226;50.874;4.394;2022-09-14T08:02:40;17.10;99.90
23597;DHT22;40226;50.874;4.394;2022-09-14T08:05:06;17.10;99.90
23597;DHT22;40226;50.874;4.394;2022-09-14T08:07:32;17.00;99.90
23597;DHT22;40226;50.874;4.394;2022-09-14T08:09:57;16.90;99.90
23597;DHT22;40226;50.874;4.394;2022-09-14T08:12:23;16.90;99.90
23597;DHT22;40226;50.874;4.394;2022-09-14T08:14:49;17.00;99.90
23597;DHT22;40226;50.874;4.394;2022-09-14T08:17:16;17.20;99.90
23597;DHT22;40226;50.874;4.394;2022-09-14T08:19:42;17.00;99.90
23597;DHT22;40226;50.874;4.394;2022-09-14T08:22:07;17.00;99.90
23597;DHT22;40226;50.874;4.394;2022-09-14T08:24:33;17.00;99.90
23597;DHT22;40226;50.874;4.394;2022-09-14T08:26:59;17.00;99.90
23597;DHT22;40226;50.874;4.394;2022-09-14T08:29:24;16.90;99.90
23597;DHT22;40226;50.874;4.394;2022-09-14T08:31:50;17.00;99.90
23597;DHT22;40226;50.874;4.394;2022-09-14T08:34:18;17.20;99.90
23597;DHT22;40226;50.874;4.394;2022-09-14T08:36:45;17.10;99.90
23597;DHT22;40226;50.874;4.394;2022-09-14T08:39:13;17.20;99.90
23597;DHT22;40226;50.874;4.394;2022-09-14T08:47:21;17.30;99.90
23597;DHT22;40226;50.874;4.394;2022-09-14T08:49:56;17.30;99.90
23597;DHT22;40226;50.874;4.394;2022-09-14T09:00:13;17.50;99.90
23597;DHT22;40226;50.874;4.394;2022-09-14T09:10:37;17.30;99.90
23597;DHT22;40226;50.874;4.394;2022-09-14T09:13:05;17.30;99.90
23597;DHT22;40226;50.874;4.394;2022-09-14T09:15:36;17.40;99.90
23597;DHT22;40226;50.874;4.394;2022-09-14T09:18:13;17.40;99.90
23597;DHT22;40226;50.874;4.394;2022-09-14T09:20:53;17.40;99.90
23597;DHT22;40226;50.874;4.394;2022-09-14T09:23:23;17.40;99.90
23597;DHT22;40226;50.874;4.394;2022-09-14T09:28:46;17.50;99.90
23597;DHT22;40226;50.874;4.394;2022-09-14T09:31:14;17.60;99.90
23597;DHT22;40226;50.874;4.394;2022-09-14T09:33:41;17.50;99.90
23597;DHT22;40226;50.874;4.394;2022-09-14T09:36:07;17.40;99.90
23597;DHT22;40226;50.874;4.394;2022-09-14T09:38:37;17.50;99.90
23597;DHT22;40226;50.874;4.394;2022-09-14T09:41:14;17.50;99.90
23597;DHT22;40226;50.874;4.394;2022-09-14T09:46:37;17.70;99.90
23597;DHT22;40226;50.874;4.394;2022-09-14T09:49:15;17.80;99.90
23597;DHT22;40226;50.874;4.394;2022-09-14T09:51:40;17.80;99.90
23597;DHT22;40226;50.874;4.394;2022-09-14T09:56:40;17.50;99.90
23597;DHT22;40226;50.874;4.394;2022-09-14T09:59:31;17.50;99.90
23597;DHT22;40226;50.874;4.394;2022-09-14T10:02:22;17.60;99.90
23597;DHT22;40226;50.874;4.394;2022-09-14T10:07:39;17.60;99.90
23597;DHT22;40226;50.874;4.394;2022-09-14T10:10:12;17.60;99.90
23597;DHT22;40226;50.874;4.394;2022-09-14T10:12:48;17.60;99.90
23597;DHT22;40226;50.874;4.394;2022-09-14T10:15:19;17.40;99.90
23597;DHT22;40226;50.874;4.394;2022-09-14T10:18:13;17.40;99.90
23597;DHT22;40226;50.874;4.394;2022-09-14T10:21:23;17.40;99.90
23597;DHT22;40226;50.874;4.394;2022-09-14T10:23:32;17.70;99.90
23597;DHT22;40226;50.874;4.394;2022-09-14T10:28:35;17.60;99.90
23597;DHT22;40226;50.874;4.394;2022-09-14T10:33:51;17.50;99.90
23597;DHT22;40226;50.874;4.394;2022-09-14T10:36:32;17.60;99.90
23597;DHT22;40226;50.874;4.394;2022-09-14T10:42:10;17.40;99.90
23597;DHT22;40226;50.874;4.394;2022-09-14T10:44:53;17.70;99.90
23597;DHT22;40226;50.874;4.394;2022-09-14T10:48:13;17.70;99.90
23597;DHT22;40226;50.874;4.394;2022-09-14T10:50:26;17.90;99.90
23597;DHT22;40226;50.874;4.394;2022-09-14T10:55:56;18.20;99.90
23597;DHT22;40226;50.874;4.394;2022-09-14T11:04:08;18.00;99.90
23597;DHT22;40226;50.874;4.394;2022-09-14T11:07:09;17.80;99.90
23597;DHT22;40226;50.874;4.394;2022-09-14T11:09:46;17.60;99.90
23597;DHT22;40226;50.874;4.394;2022-09-14T11:12:35;17.70;99.90
23597;DHT22;40226;50.874;4.394;2022-09-14T11:15:34;17.70;99.90
23597;DHT22;40226;50.874;4.394;2022-09-14T11:18:34;17.50;99.90
23597;DHT22;40226;50.874;4.394;2022-09-14T11:23:59;17.60;99.90
23597;DHT22;40226;50.874;4.394;2022-09-14T11:26:31;17.70;99.90
23597;DHT22;40226;50.874;4.394;2022-09-14T11:31:51;17.90;99.90
23597;DHT22;40226;50.874;4.394;2022-09-14T11:36:47;17.70;99.90
23597;DHT22;40226;50.874;4.394;2022-09-14T11:39:21;17.70;99.90
23597;DHT22;40226;50.874;4.394;2022-09-14T11:44:32;18.00;99.90
23597;DHT22;40226;50.874;4.394;2022-09-14T11:47:04;17.90;99.90
23597;DHT22;40226;50.874;4.394;2022-09-14T11:52:21;17.50;99.90
23597;DHT22;40226;50.874;4.394;2022-09-14T11:54:48;17.20;99.90
23597;DHT22;40226;50.874;4.394;2022-09-14T11:57:22;17.40;99.90
23597;DHT22;40226;50.874;4.394;2022-09-14T11:59:55;17.50;99.90
23597;DHT22;40226;50.874;4.394;2022-09-14T12:36:04;17.50;99.90
23597;DHT22;40226;50.874;4.394;2022-09-14T12:40:57;17.30;99.90
23597;DHT22;40226;50.874;4.394;2022-09-14T12:46:02;17.60;99.90
23597;DHT22;40226;50.874;4.394;2022-09-14T12:51:41;17.70;99.90
23597;DHT22;40226;50.874;4.394;2022-09-14T12:54:23;17.60;99.90
23597;DHT22;40226;50.874;4.394;2022-09-14T12:56:57;17.70;99.90
23597;DHT22;40226;50.874;4.394;2022-09-14T12:59:35;17.70;99.90
23597;DHT22;40226;50.874;4.394;2022-09-14T13:04:38;17.50;99.90
23597;DHT22;40226;50.874;4.394;2022-09-14T13:07:12;17.60;99.90
23597;DHT22;40226;50.874;4.394;2022-09-14T13:09:44;17.60;99.90
23597;DHT22;40226;50.874;4.394;2022-09-14T13:12:11;17.60;99.90
23597;DHT22;40226;50.874;4.394;2022-09-14T13:14:48;17.50;99.90
23597;DHT22;40226;50.874;4.394;2022-09-14T13:17:16;17.70;99.90
23597;DHT22;40226;50.874;4.394;2022-09-14T13:19:42;17.70;99.90
23597;DHT22;40226;50.874;4.394;2022-09-14T13:22:18;17.60;99.90
23597;DHT22;40226;50.874;4.394;2022-09-14T13:24:45;17.70;99.90
23597;DHT22;40226;50.874;4.394;2022-09-14T13:30:19;17.70;99.90
23597;DHT22;40226;50.874;4.394;2022-09-14T13:32:48;17.50;99.90
23597;DHT22;40226;50.874;4.394;2022-09-14T13:35:21;17.50;99.90
23597;DHT22;40226;50.874;4.394;2022-09-14T13:37:49;17.90;99.90
23597;DHT22;40226;50.874;4.394;2022-09-14T13:40:15;18.20;99.90
23597;DHT22;40226;50.874;4.394;2022-09-14T13:42:41;18.00;99.90
23597;DHT22;40226;50.874;4.394;2022-09-14T13:45:11;17.70;99.90
23597;DHT22;40226;50.874;4.394;2022-09-14T13:47:37;17.70;99.90
23597;DHT22;40226;50.874;4.394;2022-09-14T13:50:05;17.90;99.90
23597;DHT22;40226;50.874;4.394;2022-09-14T13:52:39;17.90;99.90
23597;DHT22;40226;50.874;4.394;2022-09-14T14:00:47;18.00;99.90
23597;DHT22;40226;50.874;4.394;2022-09-14T14:05:48;17.90;99.90
23597;DHT22;40226;50.874;4.394;2022-09-14T14:08:31;17.90;99.90
23597;DHT22;40226;50.874;4.394;2022-09-14T14:11:00;18.30;99.90
23597;DHT22;40226;50.874;4.394;2022-09-14T14:13:29;18.30;99.90
23597;DHT22;40226;50.874;4.394;2022-09-14T14:18:48;18.00;99.90
23597;DHT22;40226;50.874;4.394;2022-09-14T14:21:34;17.60;99.90
23597;DHT22;40226;50.874;4.394;2022-09-14T14:24:25;17.60;99.90
23597;DHT22;40226;50.874;4.394;2022-09-14T14:26:54;17.70;99.90
23597;DHT22;40226;50.874;4.394;2022-09-14T14:29:20;17.50;99.90
23597;DHT22;40226;50.874;4.394;2022-09-14T14:31:46;17.40;99.90
23597;DHT22;40226;50.874;4.394;2022-09-14T14:34:27;17.60;99.90
23597;DHT22;40226;50.874;4.394;2022-09-14T14:36:53;17.60;99.90
23597;DHT22;40226;50.874;4.394;2022-09-14T14:39:21;17.40;99.90
23597;DHT22;40226;50.874;4.394;2022-09-14T14:41:48;17.30;99.90
23597;DHT22;40226;50.874;4.394;2022-09-14T14:44:24;17.30;99.90
23597;DHT22;40226;50.874;4.394;2022-09-14T14:46:50;17.40;99.90
23597;DHT22;40226;50.874;4.394;2022-09-14T14:49:17;17.20;99.90
23597;DHT22;40226;50.874;4.394;2022-09-14T14:51:45;17.30;99.90
23597;DHT22;40226;50.874;4.394;2022-09-14T14:54:11;17.20;99.90
23597;DHT22;40226;50.874;4.394;2022-09-14T14:56:40;17.10;99.90
23597;DHT22;40226;50.874;4.394;2022-09-14T15:01:49;17.20;99.90
23597;DHT22;40226;50.874;4.394;2022-09-14T15:04:15;17.00;99.90
23597;DHT22;40226;50.874;4.394;2022-09-14T15:06:41;16.90;99.90
23597;DHT22;40226;50.874;4.394;2022-09-14T15:09:14;16.50;99.90
23597;DHT22;40226;50.874;4.394;2022-09-14T15:11:40;16.60;99.90
23597;DHT22;40226;50.874;4.394;2022-09-14T15:14:14;16.70;99.90
23597;DHT22;40226;50.874;4.394;2022-09-14T15:16:40;17.00;99.90
23597;DHT22;40226;50.874;4.394;2022-09-14T15:19:06;17.10;99.90
23597;DHT22;40226;50.874;4.394;2022-09-14T15:21:32;17.00;99.90
23597;DHT22;40226;50.874;4.394;2022-09-14T15:23:58;17.20;99.90
23597;DHT22;40226;50.874;4.394;2022-09-14T15:26:24;17.20;99.90
23597;DHT22;40226;50.874;4.394;2022-09-14T15:28:50;17.30;99.90
23597;DHT22;40226;50.874;4.394;2022-09-14T15:31:16;17.40;99.90
23597;DHT22;40226;50.874;4.394;2022-09-14T15:33:42;17.50;99.90
23597;DHT22;40226;50.874;4.394;2022-09-14T15:36:08;17.50;99.90
23597;DHT22;40226;50.874;4.394;2022-09-14T15:38:33;17.30;99.90
23597;DHT22;40226;50.874;4.394;2022-09-14T15:40:59;17.00;99.90
23597;DHT22;40226;50.874;4.394;2022-09-14T15:43:24;16.90;99.90
23597;DHT22;40226;50.874;4.394;2022-09-14T15:45:50;16.90;99.90
23597;DHT22;40226;50.874;4.394;2022-09-14T15:48:16;17.00;99.90
23597;DHT22;40226;50.874;4.394;2022-09-14T15:50:44;16.80;99.90
23597;DHT22;40226;50.874;4.394;2022-09-14T15:53:11;17.00;99.90
23597;DHT22;40226;50.874;4.394;2022-09-14T15:55:41;16.80;99.90
23597;DHT22;40226;50.874;4.394;2022-09-14T15:58:07;16.80;99.90
23597;DHT22;40226;50.874;4.394;2022-09-14T16:00:34;17.00;99.90
23597;DHT22;40226;50.874;4.394;2022-09-14T16:03:00;17.00;99.90
23597;DHT22;40226;50.874;4.394;2022-09-14T16:05:26;17.00;99.90
23597;DHT22;40226;50.874;4.394;2022-09-14T16:07:53;17.20;99.90
23597;DHT22;40226;50.874;4.394;2022-09-14T16:10:19;17.20;99.90
23597;DHT22;40226;50.874;4.394;2022-09-14T16:12:44;17.20;99.90
23597;DHT22;40226;50.874;4.394;2022-09-14T16:15:10;17.00;99.90
23597;DHT22;40226;50.874;4.394;2022-09-14T16:17:36;16.90;99.90
23597;DHT22;40226;50.874;4.394;2022-09-14T16:20:03;17.00;99.90
23597;DHT22;40226;50.874;4.394;2022-09-14T16:22:30;17.10;99.90
23597;DHT22;40226;50.874;4.394;2022-09-14T16:24:55;17.10;99.90
23597;DHT22;40226;50.874;4.394;2022-09-14T16:27:21;17.00;99.90
23597;DHT22;40226;50.874;4.394;2022-09-14T16:29:47;17.00;99.90
23597;DHT22;40226;50.874;4.394;2022-09-14T16:32:12;17.20;99.90
23597;DHT22;40226;50.874;4.394;2022-09-14T16:34:38;17.30;99.90
23597;DHT22;40226;50.874;4.394;2022-09-14T16:37:04;17.10;99.90
23597;DHT22;40226;50.874;4.394;2022-09-14T16:39:29;17.10;99.90
23597;DHT22;40226;50.874;4.394;2022-09-14T16:41:56;17.10;99.90
23597;DHT22;40226;50.874;4.394;2022-09-14T16:44:23;17.20;99.90
23597;DHT22;40226;50.874;4.394;2022-09-14T16:46:50;17.00;99.90
23597;DHT22;40226;50.874;4.394;2022-09-14T16:49:17;16.90;99.90
23597;DHT22;40226;50.874;4.394;2022-09-14T16:51:43;16.70;99.90
23597;DHT22;40226;50.874;4.394;2022-09-14T16:54:19;16.50;99.90
23597;DHT22;40226;50.874;4.394;2022-09-14T16:56:46;16.20;99.90
23597;DHT22;40226;50.874;4.394;2022-09-14T16:59:12;16.20;99.90
23597;DHT22;40226;50.874;4.394;2022-09-14T17:01:40;16.10;99.90
23597;DHT22;40226;50.874;4.394;2022-09-14T17:04:09;16.20;99.90
23597;DHT22;40226;50.874;4.394;2022-09-14T17:06:37;16.20;99.90
23597;DHT22;40226;50.874;4.394;2022-09-14T17:09:06;16.30;99.90
23597;DHT22;40226;50.874;4.394;2022-09-14T17:11:33;16.20;99.90
23597;DHT22;40226;50.874;4.394;2022-09-14T17:14:00;16.30;99.90
23597;DHT22;40226;50.874;4.394;2022-09-14T17:16:26;16.40;99.90
23597;DHT22;40226;50.874;4.394;2022-09-14T17:19:01;16.30;99.90
23597;DHT22;40226;50.874;4.394;2022-09-14T17:21:30;16.40;99.90
23597;DHT22;40226;50.874;4.394;2022-09-14T17:23:56;16.30;99.90
23597;DHT22;40226;50.874;4.394;2022-09-14T17:26:22;16.30;99.90
23597;DHT22;40226;50.874;4.394;2022-09-14T17:28:49;16.30;99.90
23597;DHT22;40226;50.874;4.394;2022-09-14T17:31:20;16.40;99.90
23597;DHT22;40226;50.874;4.394;2022-09-14T17:33:47;16.50;99.90
23597;DHT22;40226;50.874;4.394;2022-09-14T17:36:13;16.60;99.90
23597;DHT22;40226;50.874;4.394;2022-09-14T17:38:40;16.50;99.90
23597;DHT22;40226;50.874;4.394;2022-09-14T17:41:13;16.60;99.90
23597;DHT22;40226;50.874;4.394;2022-09-14T17:43:40;16.70;99.90
23597;DHT22;40226;50.874;4.394;2022-09-14T17:46:08;16.80;99.90
23597;DHT22;40226;50.874;4.394;2022-09-14T17:48:37;16.80;99.90
23597;DHT22;40226;50.874;4.394;2022-09-14T17:51:07;16.70;99.90
23597;DHT22;40226;50.874;4.394;2022-09-14T17:53:41;16.60;99.90
23597;DHT22;40226;50.874;4.394;2022-09-14T17:56:10;16.60;99.90
23597;DHT22;40226;50.874;4.394;2022-09-14T17:58:36;16.40;99.90
23597;DHT22;40226;50.874;4.394;2022-09-14T18:01:17;16.10;99.90
23597;DHT22;40226;50.874;4.394;2022-09-14T18:03:49;16.40;99.90
23597;DHT22;40226;50.874;4.394;2022-09-14T18:06:15;16.50;99.90
23597;DHT22;40226;50.874;4.394;2022-09-14T18:08:40;16.50;99.90
23597;DHT22;40226;50.874;4.394;2022-09-14T18:11:12;16.60;99.90
23597;DHT22;40226;50.874;4.394;2022-09-14T18:13:45;16.50;99.90
23597;DHT22;40226;50.874;4.394;2022-09-14T18:16:12;16.40;99.90
23597;DHT22;40226;50.874;4.394;2022-09-14T18:18:39;16.40;99.90
23597;DHT22;40226;50.874;4.394;2022-09-14T18:21:06;16.40;99.90
23597;DHT22;40226;50.874;4.394;2022-09-14T18:23:32;16.30;99.90
23597;DHT22;40226;50.874;4.394;2022-09-14T18:26:00;16.30;99.90
23597;DHT22;40226;50.874;4.394;2022-09-14T18:28:26;16.40;99.90
23597;DHT22;40226;50.874;4.394;2022-09-14T18:31:02;16.40;99.90